Time;durP1;ratioP1;P1;durP2;ratioP2;P2;SDS_P1;SDS_P2;PMS_P1;PMS_P2;Temp;Humidity;BMP_temperature;BMP_pressure;BME280_temperature;BME280_humidity;BME280_pressure;Samples;Min_cycle;Max_cycle;Signal;HPM_P1;HPM_P2
2023/09/22 00:00:55;;;;;;;1.00;0.68;;;24.50;55.10;;;;;;4998299;28;19909;-65
2023/09/22 00:03:23;;;;;;;0.85;0.70;;;24.50;55.00;;;;;;4997844;28;20018;-65
2023/09/22 00:05:48;;;;;;;0.75;0.70;;;24.50;55.10;;;;;;4998979;28;20022;-65
2023/09/22 00:08:15;;;;;;;1.00;0.80;;;24.50;55.00;;;;;;5000866;28;20041;-66
2023/09/22 00:10:40;;;;;;;1.00;0.80;;;24.50;55.00;;;;;;4996437;28;20070;-66
2023/09/22 00:13:06;;;;;;;0.95;0.73;;;24.50;55.00;;;;;;4999384;28;20049;-65
2023/09/22 00:15:34;;;;;;;0.85;0.80;;;24.50;55.00;;;;;;5014763;28;20022;-66
2023/09/22 00:18:00;;;;;;;1.10;0.70;;;24.50;55.00;;;;;;4999165;28;20087;-66
2023/09/22 00:20:25;;;;;;;0.98;0.80;;;24.50;55.00;;;;;;5015445;28;20121;-65
2023/09/22 00:22:52;;;;;;;0.70;0.60;;;24.50;55.00;;;;;;4996533;28;20037;-66
2023/09/22 00:25:18;;;;;;;1.20;0.75;;;24.50;55.00;;;;;;4995627;28;20394;-65
2023/09/22 00:27:44;;;;;;;1.13;0.80;;;24.50;55.00;;;;;;4997147;28;20030;-65
2023/09/22 00:30:10;;;;;;;0.77;0.60;;;24.50;55.00;;;;;;5000017;28;20023;-66
2023/09/22 00:32:38;;;;;;;0.70;0.70;;;24.50;55.00;;;;;;4998350;28;20164;-67
2023/09/22 00:35:05;;;;;;;1.02;0.70;;;24.50;55.00;;;;;;4997984;28;20084;-67
2023/09/22 00:37:30;;;;;;;1.00;0.75;;;24.50;55.00;;;;;;4999622;28;20537;-67
2023/09/22 00:39:56;;;;;;;0.60;0.60;;;24.50;55.00;;;;;;5001288;28;20030;-67
2023/09/22 00:42:22;;;;;;;1.35;0.90;;;24.50;55.00;;;;;;5001832;28;20031;-68
2023/09/22 00:44:48;;;;;;;0.75;0.60;;;24.50;55.00;;;;;;5001088;28;20144;-67
2023/09/22 00:47:14;;;;;;;0.85;0.70;;;24.50;55.00;;;;;;5001378;28;20443;-67
2023/09/22 00:49:42;;;;;;;0.70;0.70;;;24.50;55.00;;;;;;5017683;28;20034;-67
2023/09/22 00:52:09;;;;;;;0.60;0.60;;;24.50;55.00;;;;;;5000131;28;20106;-67
2023/09/22 00:54:35;;;;;;;0.82;0.70;;;24.50;55.00;;;;;;5000606;28;20034;-68
2023/09/22 00:57:04;;;;;;;0.68;0.60;;;24.40;54.90;;;;;;5001455;28;20491;-68
2023/09/22 00:59:32;;;;;;;1.00;0.70;;;24.50;55.00;;;;;;5002050;28;20048;-68
2023/09/22 01:01:58;;;;;;;1.63;0.70;;;24.50;55.00;;;;;;5001016;28;20501;-68
2023/09/22 01:04:23;;;;;;;1.02;0.60;;;24.50;55.00;;;;;;4999142;28;20021;-68
2023/09/22 01:06:49;;;;;;;1.00;0.80;;;24.50;55.00;;;;;;5001047;28;20029;-67
2023/09/22 01:09:15;;;;;;;0.63;0.60;;;24.50;55.00;;;;;;5001287;28;20462;-68
2023/09/22 01:11:41;;;;;;;0.60;0.60;;;24.40;54.90;;;;;;5000713;28;20026;-68
2023/09/22 01:14:06;;;;;;;0.65;0.65;;;24.40;54.90;;;;;;5001306;28;20497;-68
2023/09/22 01:16:32;;;;;;;0.57;0.57;;;24.50;55.00;;;;;;4999741;28;20030;-68
2023/09/22 01:19:00;;;;;;;0.90;0.70;;;24.40;54.90;;;;;;5002227;28;20022;-68
2023/09/22 01:21:29;;;;;;;0.50;0.50;;;24.40;54.90;;;;;;5002573;28;20030;-66
2023/09/22 01:23:55;;;;;;;0.65;0.65;;;24.50;55.00;;;;;;4999515;28;20022;-67
2023/09/22 01:26:21;;;;;;;0.80;0.60;;;24.40;54.90;;;;;;5000128;28;20100;-66
2023/09/22 01:28:47;;;;;;;0.73;0.60;;;24.40;54.90;;;;;;5015915;28;20057;-66
2023/09/22 01:31:13;;;;;;;0.82;0.60;;;24.40;54.90;;;;;;5001603;28;20046;-66
2023/09/22 01:33:39;;;;;;;0.60;0.60;;;24.40;54.90;;;;;;5002683;28;20100;-66
2023/09/22 01:36:06;;;;;;;0.40;0.40;;;24.40;54.90;;;;;;5015330;28;20030;-66
2023/09/22 01:38:31;;;;;;;0.55;0.52;;;24.40;54.90;;;;;;4999584;28;20019;-66
2023/09/22 01:40:58;;;;;;;0.60;0.60;;;24.40;54.90;;;;;;4999468;28;20028;-66
2023/09/22 01:43:24;;;;;;;0.77;0.55;;;24.40;54.90;;;;;;5001802;28;20940;-66
2023/09/22 01:45:50;;;;;;;0.52;0.50;;;24.50;54.90;;;;;;5001215;28;20091;-66
2023/09/22 01:48:15;;;;;;;0.85;0.70;;;24.40;54.80;;;;;;4998832;28;20038;-67
2023/09/22 01:50:41;;;;;;;0.77;0.60;;;24.40;54.90;;;;;;4998102;28;20066;-66
2023/09/22 01:53:09;;;;;;;0.50;0.50;;;24.40;54.90;;;;;;4999987;28;20117;-66
2023/09/22 01:55:39;;;;;;;0.82;0.70;;;24.40;54.90;;;;;;4998974;28;20033;-66
2023/09/22 01:58:07;;;;;;;0.60;0.60;;;24.40;54.90;;;;;;5001118;28;20060;-66
2023/09/22 02:00:33;;;;;;;1.02;0.70;;;24.40;54.90;;;;;;5000485;28;20027;-67
2023/09/22 02:02:59;;;;;;;0.60;0.60;;;24.40;54.90;;;;;;5001543;28;20033;-66
2023/09/22 02:05:25;;;;;;;0.63;0.63;;;24.40;54.90;;;;;;4999214;28;20490;-67
2023/09/22 02:07:51;;;;;;;0.70;0.60;;;24.40;54.80;;;;;;4998113;28;20026;-66
2023/09/22 02:10:18;;;;;;;0.52;0.52;;;24.40;54.80;;;;;;4999802;28;20042;-66
2023/09/22 02:12:44;;;;;;;0.60;0.55;;;24.40;54.90;;;;;;5000167;28;20100;-66
2023/09/22 02:15:10;;;;;;;0.68;0.55;;;24.40;54.80;;;;;;4996823;28;20034;-66
2023/09/22 02:17:41;;;;;;;1.08;0.60;;;24.40;54.80;;;;;;4999432;28;20065;-67
2023/09/22 02:22:45;;;;;;;0.50;0.50;;;24.40;54.90;;;;;;5000050;28;20367;-67
2023/09/22 02:25:11;;;;;;;0.63;0.60;;;24.40;54.80;;;;;;5000398;28;20470;-67
2023/09/22 02:27:37;;;;;;;0.50;0.50;;;24.40;54.80;;;;;;4998720;28;20424;-67
2023/09/22 02:30:03;;;;;;;0.68;0.68;;;24.40;54.80;;;;;;5001081;28;20030;-67
2023/09/22 02:32:29;;;;;;;0.93;0.60;;;24.40;54.80;;;;;;5000629;28;20122;-68
2023/09/22 02:34:56;;;;;;;0.50;0.50;;;24.40;55.40;;;;;;4999410;28;20512;-67
2023/09/22 02:37:22;;;;;;;0.50;0.50;;;24.40;54.80;;;;;;4997981;28;20390;-67
2023/09/22 02:39:47;;;;;;;0.50;0.50;;;24.30;54.80;;;;;;4999959;28;20034;-67
2023/09/22 02:42:14;;;;;;;0.50;0.50;;;24.40;54.80;;;;;;4998071;28;20390;-67
2023/09/22 02:44:39;;;;;;;0.50;0.50;;;24.40;54.80;;;;;;4997276;28;20022;-67
2023/09/22 02:47:05;;;;;;;0.75;0.55;;;24.30;54.70;;;;;;5000117;28;20018;-67
2023/09/22 02:49:31;;;;;;;0.50;0.50;;;24.40;54.80;;;;;;4998537;28;20025;-67
2023/09/22 02:51:57;;;;;;;0.52;0.52;;;24.30;54.80;;;;;;4999225;28;20611;-63
2023/09/22 02:54:23;;;;;;;0.50;0.50;;;24.40;54.80;;;;;;4997860;28;20019;-63
2023/09/22 02:56:49;;;;;;;0.57;0.50;;;24.30;54.80;;;;;;4998512;28;20076;-64
2023/09/22 02:59:15;;;;;;;0.52;0.52;;;24.40;54.80;;;;;;4998848;28;20147;-64
2023/09/22 03:01:43;;;;;;;0.63;0.60;;;24.30;54.80;;;;;;4998765;28;20479;-62
2023/09/22 03:04:09;;;;;;;0.63;0.50;;;24.40;54.80;;;;;;4999118;28;20034;-63
2023/09/22 03:06:35;;;;;;;0.50;0.50;;;24.30;54.70;;;;;;4998052;28;20022;-64
2023/09/22 03:09:06;;;;;;;0.47;0.47;;;24.30;54.70;;;;;;4998097;28;20476;-63
2023/09/22 03:11:32;;;;;;;0.50;0.50;;;24.40;54.80;;;;;;4999820;28;20051;-63
2023/09/22 03:13:57;;;;;;;0.50;0.50;;;24.30;54.70;;;;;;4998603;28;20037;-63
2023/09/22 03:16:23;;;;;;;0.47;0.47;;;24.30;54.70;;;;;;4998570;28;20142;-63
2023/09/22 03:18:49;;;;;;;0.43;0.43;;;24.30;54.70;;;;;;4998780;28;20053;-64
2023/09/22 03:21:15;;;;;;;0.40;0.40;;;24.30;54.70;;;;;;5000233;28;20108;-62
2023/09/22 03:23:41;;;;;;;0.50;0.50;;;24.30;54.70;;;;;;4999365;28;20023;-64
2023/09/22 03:26:06;;;;;;;0.60;0.60;;;24.30;54.70;;;;;;4998480;28;20394;-63
2023/09/22 03:28:32;;;;;;;0.70;0.60;;;24.30;54.70;;;;;;4999342;28;20401;-63
2023/09/22 03:30:58;;;;;;;0.50;0.50;;;24.30;54.80;;;;;;4998075;28;20030;-66
2023/09/22 03:33:24;;;;;;;0.50;0.47;;;24.30;54.70;;;;;;4999281;28;20037;-66
2023/09/22 03:35:50;;;;;;;0.70;0.60;;;24.30;54.80;;;;;;5000197;28;20505;-66
2023/09/22 03:38:15;;;;;;;0.50;0.50;;;24.30;54.80;;;;;;4999078;28;20080;-66
2023/09/22 03:40:41;;;;;;;0.63;0.60;;;24.30;54.80;;;;;;4999904;28;20025;-66
2023/09/22 03:43:10;;;;;;;0.80;0.50;;;24.30;54.80;;;;;;4997573;28;20026;-66
2023/09/22 03:45:37;;;;;;;;;;;24.30;54.80;;;;;;4999149;28;20036;-66
2023/09/22 03:48:03;;;;;;;0.50;0.50;;;24.30;54.70;;;;;;4997283;28;19916;-66
2023/09/22 03:50:29;;;;;;;0.60;0.60;;;24.30;54.80;;;;;;4999338;28;20459;-66
2023/09/22 03:52:55;;;;;;;0.60;0.50;;;24.30;55.30;;;;;;5001737;28;20112;-66
2023/09/22 03:55:21;;;;;;;0.43;0.43;;;24.30;54.70;;;;;;4999878;28;20030;-65
2023/09/22 03:57:46;;;;;;;0.43;0.43;;;24.30;54.80;;;;;;4996565;28;20497;-66
2023/09/22 04:00:17;;;;;;;0.50;0.50;;;24.30;54.80;;;;;;4998123;28;20022;-69
2023/09/22 04:02:44;;;;;;;0.50;0.50;;;24.30;54.80;;;;;;4998766;28;20430;-62
2023/09/22 04:05:11;;;;;;;0.50;0.50;;;24.30;54.80;;;;;;4997708;28;20080;-62
2023/09/22 04:07:37;;;;;;;0.75;0.60;;;24.30;54.70;;;;;;5002217;28;20431;-63
2023/09/22 04:10:03;;;;;;;0.50;0.50;;;24.20;54.70;;;;;;4997616;28;20038;-62
2023/09/22 04:12:29;;;;;;;0.50;0.50;;;24.30;54.70;;;;;;5002018;28;20044;-62
2023/09/22 04:14:56;;;;;;;0.40;0.40;;;24.30;54.80;;;;;;5001713;28;20057;-64
2023/09/22 04:17:21;;;;;;;0.60;0.50;;;24.30;54.70;;;;;;5002734;28;20029;-64
2023/09/22 04:19:49;;;;;;;1.15;0.60;;;24.30;54.80;;;;;;4999868;28;20053;-62
2023/09/22 04:22:16;;;;;;;0.50;0.50;;;24.30;54.70;;;;;;5003925;28;20061;-64
2023/09/22 04:24:47;;;;;;;0.95;0.60;;;24.30;54.70;;;;;;5001983;28;20030;-63
2023/09/22 04:27:14;;;;;;;0.50;0.50;;;24.20;54.70;;;;;;5015756;28;20545;-62
2023/09/22 04:29:40;;;;;;;0.50;0.50;;;24.30;55.20;;;;;;5003079;28;20030;-62
2023/09/22 04:32:06;;;;;;;0.57;0.55;;;24.20;54.70;;;;;;4999686;28;20018;-64
2023/09/22 04:34:33;;;;;;;0.47;0.40;;;24.30;54.70;;;;;;5000164;28;20497;-64
2023/09/22 04:36:59;;;;;;;0.50;0.50;;;24.30;54.70;;;;;;5002424;28;20385;-62
2023/09/22 04:39:25;;;;;;;0.50;0.50;;;24.30;54.70;;;;;;5002000;28;20030;-62
2023/09/22 04:41:50;;;;;;;0.68;0.40;;;24.30;54.70;;;;;;5002053;28;20018;-69
2023/09/22 04:44:18;;;;;;;0.63;0.50;;;24.20;54.70;;;;;;5002865;28;20035;-69
2023/09/22 04:46:44;;;;;;;0.50;0.50;;;24.20;54.60;;;;;;5002731;28;20077;-69
2023/09/22 04:49:11;;;;;;;0.40;0.40;;;24.20;54.70;;;;;;5001006;28;20030;-68
2023/09/22 04:51:37;;;;;;;0.50;0.50;;;24.20;54.70;;;;;;5001233;28;20382;-69
2023/09/22 04:54:02;;;;;;;0.43;0.43;;;24.20;54.70;;;;;;5000040;28;20034;-69
2023/09/22 04:56:28;;;;;;;0.50;0.50;;;24.20;54.70;;;;;;4999693;28;20038;-69
2023/09/22 04:58:56;;;;;;;0.50;0.50;;;24.20;54.70;;;;;;4999536;28;20056;-68
2023/09/22 05:01:24;;;;;;;1.00;0.57;;;24.20;54.70;;;;;;5001648;28;20056;-69
2023/09/22 05:03:50;;;;;;;0.50;0.50;;;24.20;54.60;;;;;;5001161;28;20026;-69
2023/09/22 05:06:16;;;;;;;0.50;0.50;;;24.20;54.70;;;;;;4998746;28;20032;-68
2023/09/22 05:08:42;;;;;;;0.55;0.52;;;24.20;54.70;;;;;;5000803;28;20030;-68
2023/09/22 05:11:08;;;;;;;0.57;0.50;;;24.20;54.70;;;;;;5001042;28;20143;-65
2023/09/22 05:13:35;;;;;;;0.60;0.60;;;24.20;54.70;;;;;;4999605;28;20474;-65
2023/09/22 05:16:14;;;;;;;0.50;0.50;;;24.20;54.70;;;;;;5000547;28;20025;-64
2023/09/22 05:18:40;;;;;;;0.50;0.50;;;24.20;54.70;;;;;;4999665;28;20037;-64
2023/09/22 05:21:09;;;;;;;0.40;0.40;;;24.20;54.60;;;;;;5001380;28;20042;-65
2023/09/22 05:23:35;;;;;;;0.38;0.38;;;24.20;54.70;;;;;;4998335;28;20069;-65
2023/09/22 05:26:08;;;;;;;0.57;0.43;;;24.20;54.60;;;;;;5003383;28;20081;-64
2023/09/22 05:28:34;;;;;;;0.50;0.50;;;24.20;54.60;;;;;;4997772;28;20524;-64
2023/09/22 05:31:00;;;;;;;0.65;0.50;;;24.20;55.20;;;;;;5001103;28;20030;-64
2023/09/22 05:33:28;;;;;;;0.70;0.60;;;24.20;54.70;;;;;;5000627;28;20045;-64
2023/09/22 05:35:54;;;;;;;0.40;0.40;;;24.20;54.60;;;;;;5000493;28;20026;-64
2023/09/22 05:38:20;;;;;;;0.40;0.40;;;24.20;54.60;;;;;;5000858;28;20042;-64
2023/09/22 05:40:45;;;;;;;0.40;0.40;;;24.20;54.70;;;;;;4999919;28;20026;-64
2023/09/22 05:43:12;;;;;;;0.40;0.40;;;24.10;54.60;;;;;;4999381;28;20038;-64
2023/09/22 05:45:38;;;;;;;0.38;0.38;;;24.10;54.60;;;;;;5000227;28;20038;-65
2023/09/22 05:48:04;;;;;;;0.55;0.45;;;24.10;54.60;;;;;;5000338;28;20036;-64
2023/09/22 05:50:29;;;;;;;0.80;0.50;;;24.10;54.70;;;;;;5000727;28;20180;-69
2023/09/22 05:52:55;;;;;;;0.55;0.45;;;24.10;55.20;;;;;;4998689;28;20117;-69
2023/09/22 05:55:22;;;;;;;0.55;0.40;;;24.10;54.60;;;;;;4999912;28;20029;-69
2023/09/22 05:57:50;;;;;;;2.05;0.50;;;24.10;54.70;;;;;;4998018;28;20474;-69
2023/09/22 06:00:16;;;;;;;0.50;0.40;;;24.10;54.60;;;;;;5000494;28;20124;-68
2023/09/22 06:02:52;;;;;;;0.80;0.50;;;24.10;54.60;;;;;;5015500;28;20110;-67
2023/09/22 06:05:24;;;;;;;0.63;0.50;;;24.20;54.70;;;;;;5000520;28;20115;-68
2023/09/22 06:07:51;;;;;;;0.68;0.50;;;24.10;54.70;;;;;;4999171;28;20038;-68
2023/09/22 06:10:17;;;;;;;0.82;0.50;;;24.10;54.70;;;;;;5016400;28;20053;-68
2023/09/22 06:12:43;;;;;;;0.40;0.40;;;24.10;54.70;;;;;;4998167;28;20057;-68
2023/09/22 06:15:09;;;;;;;1.00;0.50;;;24.10;54.70;;;;;;4999881;28;20036;-68
2023/09/22 06:17:36;;;;;;;0.57;0.50;;;24.10;54.70;;;;;;4999728;28;20168;-67
2023/09/22 06:20:13;;;;;;;0.50;0.50;;;24.10;54.60;;;;;;4998422;28;20030;-68
2023/09/22 06:22:40;;;;;;;0.60;0.40;;;24.10;54.70;;;;;;5000729;28;20791;-69
2023/09/22 06:25:08;;;;;;;0.50;0.50;;;24.10;54.60;;;;;;4999837;28;20026;-68
2023/09/22 06:27:33;;;;;;;0.50;0.50;;;24.10;54.70;;;;;;4997756;28;20026;-68
2023/09/22 06:30:00;;;;;;;0.47;0.40;;;24.10;54.60;;;;;;5000607;28;20517;-69
2023/09/22 06:32:26;;;;;;;0.50;0.50;;;24.10;54.60;;;;;;4998849;28;20104;-69
2023/09/22 06:34:53;;;;;;;0.88;0.60;;;24.10;54.70;;;;;;4998675;28;20029;-69
2023/09/22 06:37:19;;;;;;;0.45;0.45;;;24.10;54.70;;;;;;5000785;28;20474;-68
2023/09/22 06:39:46;;;;;;;0.52;0.50;;;24.10;55.20;;;;;;4998937;28;20018;-68
2023/09/22 06:42:12;;;;;;;0.63;0.43;;;24.10;54.70;;;;;;4999034;28;20088;-68
2023/09/22 06:44:38;;;;;;;0.40;0.40;;;24.10;54.70;;;;;;4996230;28;20478;-68
2023/09/22 06:47:05;;;;;;;0.50;0.50;;;24.10;54.70;;;;;;4998054;28;20125;-69
2023/09/22 06:49:33;;;;;;;0.40;0.40;;;24.10;54.70;;;;;;4999921;28;20110;-68
2023/09/22 06:52:00;;;;;;;0.60;0.50;;;24.10;54.70;;;;;;4996653;28;20030;-67
2023/09/22 06:54:26;;;;;;;0.55;0.40;;;24.10;54.70;;;;;;4997615;28;20032;-68
2023/09/22 06:56:53;;;;;;;0.60;0.50;;;24.10;54.70;;;;;;4999395;28;20030;-67
2023/09/22 06:59:21;;;;;;;0.38;0.30;;;24.10;54.70;;;;;;4996934;28;20081;-67
2023/09/22 07:01:47;;;;;;;0.80;0.50;;;24.10;54.70;;;;;;4996997;28;20361;-68
2023/09/22 07:04:13;;;;;;;0.60;0.40;;;24.10;54.70;;;;;;4997644;28;20114;-68
2023/09/22 07:06:39;;;;;;;0.57;0.50;;;24.10;54.70;;;;;;4999187;28;20054;-68
2023/09/22 07:09:09;;;;;;;0.40;0.40;;;24.10;54.70;;;;;;4999334;28;20029;-68
2023/09/22 07:11:40;;;;;;;0.40;0.40;;;24.10;54.70;;;;;;4999201;28;20027;-68
2023/09/22 07:14:08;;;;;;;0.40;0.40;;;24.10;54.70;;;;;;4997557;28;20038;-68
2023/09/22 07:16:35;;;;;;;0.43;0.40;;;24.10;54.70;;;;;;4998014;28;20041;-69
2023/09/22 07:19:00;;;;;;;0.60;0.43;;;24.00;54.60;;;;;;4998651;28;20022;-69
2023/09/22 07:21:27;;;;;;;0.40;0.40;;;24.00;54.60;;;;;;4996743;28;20500;-70
2023/09/22 07:23:54;;;;;;;0.50;0.47;;;24.00;54.60;;;;;;4998602;28;20105;-69
2023/09/22 07:26:20;;;;;;;0.40;0.40;;;24.00;54.60;;;;;;4999556;28;20072;-70
2023/09/22 07:28:46;;;;;;;0.70;0.50;;;24.10;54.70;;;;;;4997460;28;20558;-69
2023/09/22 07:31:20;;;;;;;0.80;0.50;;;24.00;54.60;;;;;;4999678;28;20030;-69
2023/09/22 07:33:46;;;;;;;0.40;0.40;;;24.00;54.60;;;;;;4997806;28;20453;-68
2023/09/22 07:36:13;;;;;;;0.80;0.50;;;24.00;54.60;;;;;;4998868;28;20030;-69
2023/09/22 07:38:39;;;;;;;0.40;0.40;;;24.10;54.70;;;;;;5015416;28;20034;-68
2023/09/22 07:41:05;;;;;;;0.43;0.40;;;24.00;54.60;;;;;;4998647;28;20447;-68
2023/09/22 07:43:30;;;;;;;0.50;0.50;;;24.00;54.60;;;;;;5012325;28;20109;-68
2023/09/22 07:46:03;;;;;;;0.73;0.50;;;24.00;54.60;;;;;;5000399;28;20116;-68
2023/09/22 07:48:29;;;;;;;0.40;0.40;;;24.00;54.60;;;;;;5000758;28;20470;-68
2023/09/22 07:50:54;;;;;;;0.55;0.50;;;24.00;54.60;;;;;;5002077;28;20097;-69
2023/09/22 07:53:20;;;;;;;0.40;0.40;;;24.00;54.60;;;;;;5002451;28;20030;-68
2023/09/22 07:55:47;;;;;;;0.40;0.40;;;24.00;54.70;;;;;;5000250;28;20479;-69
2023/09/22 07:58:13;;;;;;;0.40;0.38;;;24.00;54.60;;;;;;5002258;28;20026;-69
2023/09/22 08:00:44;;;;;;;0.57;0.50;;;24.00;54.60;;;;;;5004374;28;20026;-69
2023/09/22 08:03:10;;;;;;;0.60;0.40;;;24.00;54.60;;;;;;5004699;28;20028;-68
2023/09/22 08:05:36;;;;;;;0.40;0.40;;;24.00;54.60;;;;;;5002981;28;20105;-69
2023/09/22 08:08:02;;;;;;;0.50;0.45;;;24.00;54.60;;;;;;5001882;28;20030;-68
2023/09/22 08:10:29;;;;;;;0.40;0.40;;;24.00;54.60;;;;;;5002235;28;20049;-65
2023/09/22 08:12:55;;;;;;;0.82;0.57;;;23.90;54.60;;;;;;5002159;28;20088;-64
2023/09/22 08:15:21;;;;;;;0.40;0.30;;;24.00;54.70;;;;;;5001378;28;20052;-64
2023/09/22 08:17:48;;;;;;;0.47;0.47;;;24.00;54.70;;;;;;5003590;28;20018;-64
2023/09/22 08:20:14;;;;;;;0.30;0.30;;;24.00;54.70;;;;;;5000562;28;20033;-65
2023/09/22 08:22:40;;;;;;;0.50;0.50;;;24.00;54.70;;;;;;5002249;28;20022;-68
2023/09/22 08:25:10;;;;;;;0.57;0.50;;;24.00;55.20;;;;;;5001658;28;20052;-68
2023/09/22 08:27:37;;;;;;;0.63;0.50;;;23.90;54.60;;;;;;5001730;28;20041;-68
2023/09/22 08:30:11;;;;;;;0.82;0.40;;;23.90;54.60;;;;;;4998661;28;20470;-68
2023/09/22 08:32:42;;;;;;;0.50;0.50;;;24.00;54.70;;;;;;4999774;28;20105;-67
2023/09/22 08:35:10;;;;;;;0.77;0.50;;;23.90;54.60;;;;;;5001707;28;20057;-68
2023/09/22 08:37:37;;;;;;;1.20;0.50;;;24.00;54.70;;;;;;5003556;28;20029;-68
2023/09/22 08:40:23;;;;;;;0.40;0.40;;;24.00;54.70;;;;;;5002344;28;20541;-68
2023/09/22 08:42:51;;;;;;;0.43;0.40;;;23.90;54.70;;;;;;5008270;28;20026;-70
2023/09/22 08:45:17;;;;;;;0.45;0.40;;;23.90;54.70;;;;;;4997938;28;20028;-70
2023/09/22 08:47:45;;;;;;;0.40;0.40;;;23.90;54.70;;;;;;5001721;28;20409;-70
2023/09/22 08:50:15;;;;;;;0.50;0.40;;;23.90;54.70;;;;;;5002682;28;20113;-69
2023/09/22 08:52:43;;;;;;;0.60;0.50;;;23.90;54.70;;;;;;5000109;28;20046;-70
2023/09/22 08:55:13;;;;;;;0.52;0.50;;;23.90;54.70;;;;;;5001672;28;20445;-70
2023/09/22 08:57:44;;;;;;;0.52;0.50;;;23.90;54.70;;;;;;5001479;28;20018;-69
2023/09/22 09:00:21;;;;;;;0.80;0.40;;;23.90;54.70;;;;;;4998517;28;20038;-69
2023/09/22 09:02:48;;;;;;;0.73;0.50;;;23.90;54.70;;;;;;5002128;28;20385;-69
2023/09/22 09:05:31;;;;;;;0.40;0.40;;;23.90;55.20;;;;;;5000593;28;20596;-69
2023/09/22 09:08:10;;;;;;;0.40;0.38;;;23.90;54.70;;;;;;5000856;28;20390;-71
2023/09/22 09:10:37;;;;;;;0.52;0.43;;;23.90;54.70;;;;;;5001511;28;20030;-70
2023/09/22 09:13:03;;;;;;;0.40;0.40;;;23.90;54.70;;;;;;5001775;28;20032;-70
2023/09/22 09:15:50;;;;;;;0.55;0.40;;;23.90;54.70;;;;;;4999722;28;20096;-70
2023/09/22 09:18:18;;;;;;;0.60;0.32;;;23.90;54.80;;;;;;4999772;28;20196;-71
2023/09/22 09:20:46;;;;;;;0.50;0.50;;;23.90;54.70;;;;;;5000591;28;20057;-71
2023/09/22 09:23:13;;;;;;;0.50;0.43;;;23.90;54.70;;;;;;5000934;28;20572;-70
2023/09/22 09:25:41;;;;;;;0.47;0.43;;;23.90;54.70;;;;;;5002639;28;20168;-71
2023/09/22 09:28:08;;;;;;;0.40;0.40;;;23.90;54.80;;;;;;5000166;28;20336;-70
2023/09/22 09:30:33;;;;;;;0.50;0.50;;;23.90;54.80;;;;;;5000289;28;20021;-63
2023/09/22 09:33:10;;;;;;;0.95;0.40;;;23.90;54.80;;;;;;5002677;28;20495;-63
2023/09/22 09:35:39;;;;;;;0.40;0.40;;;23.90;54.70;;;;;;5000675;28;20026;-63
2023/09/22 09:38:06;;;;;;;0.50;0.50;;;23.90;54.80;;;;;;5001306;28;20106;-62
2023/09/22 09:40:37;;;;;;;0.40;0.40;;;23.90;54.70;;;;;;5001588;28;20482;-65
2023/09/22 09:43:11;;;;;;;0.60;0.50;;;23.90;54.70;;;;;;5001467;28;20390;-63
2023/09/22 09:45:57;;;;;;;0.50;0.50;;;23.90;54.70;;;;;;5001486;28;20474;-63
2023/09/22 09:48:24;;;;;;;0.40;0.40;;;23.90;54.70;;;;;;4999387;28;20484;-63
2023/09/22 09:50:51;;;;;;;0.40;0.40;;;23.90;54.70;;;;;;5001909;28;20038;-65
2023/09/22 09:53:44;;;;;;;0.70;0.50;;;23.90;54.70;;;;;;5001601;28;20104;-64
2023/09/22 09:56:13;;;;;;;0.60;0.50;;;23.90;54.70;;;;;;4999448;28;20031;-63
2023/09/22 09:58:39;;;;;;;;;;;23.90;54.70;;;;;;4999168;28;20026;-65
2023/09/22 10:01:05;;;;;;;1.00;0.60;;;23.90;54.80;;;;;;4998700;28;19909;-63
2023/09/22 10:03:33;;;;;;;0.60;0.60;;;23.80;54.70;;;;;;5000250;28;20065;-65
2023/09/22 10:06:02;;;;;;;0.52;0.40;;;23.80;54.70;;;;;;5001886;28;20041;-62
2023/09/22 10:08:28;;;;;;;0.68;0.47;;;23.80;54.70;;;;;;4997155;28;20506;-63
2023/09/22 10:11:03;;;;;;;0.40;0.40;;;23.80;54.70;;;;;;4998677;28;20039;-63
2023/09/22 10:13:29;;;;;;;0.50;0.40;;;23.80;54.70;;;;;;4999015;28;20435;-63
2023/09/22 10:15:59;;;;;;;0.93;0.82;;;23.80;54.70;;;;;;4999025;28;20030;-63
2023/09/22 10:18:48;;;;;;;0.50;0.50;;;23.80;54.70;;;;;;4998226;28;20022;-62
2023/09/22 10:21:28;;;;;;;0.40;0.40;;;23.80;54.70;;;;;;4998407;28;20048;-61
2023/09/22 10:24:16;;;;;;;0.60;0.40;;;23.80;54.70;;;;;;5000160;28;20092;-63
2023/09/22 10:27:14;;;;;;;0.57;0.50;;;23.80;54.80;;;;;;5001251;28;20658;-64
2023/09/22 10:29:42;;;;;;;0.63;0.50;;;23.80;54.80;;;;;;4996388;28;20085;-63
2023/09/22 10:32:16;;;;;;;0.50;0.50;;;23.80;54.80;;;;;;4999939;28;20032;-71
2023/09/22 10:34:53;;;;;;;0.38;0.38;;;23.80;54.80;;;;;;4999523;28;20109;-70
2023/09/22 10:37:23;;;;;;;0.63;0.50;;;23.80;54.80;;;;;;5000534;28;20046;-72
2023/09/22 10:40:08;;;;;;;0.50;0.50;;;23.80;55.40;;;;;;5014473;28;20118;-71
2023/09/22 10:42:39;;;;;;;0.40;0.40;;;23.80;54.80;;;;;;4999363;28;20018;-63
2023/09/22 10:45:05;;;;;;;0.47;0.47;;;23.80;54.90;;;;;;4996207;28;20023;-63
2023/09/22 10:47:39;;;;;;;0.60;0.50;;;23.80;54.90;;;;;;4998508;28;20083;-64
2023/09/22 10:50:26;;;;;;;0.40;0.40;;;23.80;54.90;;;;;;4998625;28;20119;-64
2023/09/22 10:53:05;;;;;;;1.48;0.47;;;23.80;54.90;;;;;;4995633;28;20467;-63
2023/09/22 10:55:41;;;;;;;0.40;0.40;;;23.80;54.90;;;;;;4999083;28;20482;-64
2023/09/22 10:58:12;;;;;;;0.47;0.40;;;23.80;55.40;;;;;;4998773;28;20026;-64
2023/09/22 11:00:43;;;;;;;0.50;0.50;;;23.80;54.90;;;;;;4997845;28;20050;-70
2023/09/22 11:03:14;;;;;;;1.17;0.50;;;23.70;54.80;;;;;;4999428;28;20098;-70
2023/09/22 11:05:43;;;;;;;0.60;0.50;;;23.70;54.80;;;;;;4998611;28;20053;-69
2023/09/22 11:08:17;;;;;;;0.50;0.50;;;23.70;54.80;;;;;;4997803;28;20030;-70
2023/09/22 11:10:56;;;;;;;0.60;0.50;;;23.80;54.90;;;;;;4998856;28;20037;-68
2023/09/22 11:13:22;;;;;;;0.80;0.45;;;23.70;54.80;;;;;;4997871;28;20030;-70
2023/09/22 11:15:56;;;;;;;0.40;0.40;;;23.80;54.90;;;;;;4999601;28;20517;-69
2023/09/22 11:18:27;;;;;;;0.60;0.40;;;23.80;54.90;;;;;;4998990;28;20454;-69
2023/09/22 11:20:59;;;;;;;0.40;0.40;;;23.70;54.80;;;;;;4999096;28;20036;-70
2023/09/22 11:23:28;;;;;;;0.40;0.40;;;23.70;54.80;;;;;;4999861;28;20477;-70
2023/09/22 11:26:08;;;;;;;0.50;0.50;;;23.80;54.90;;;;;;5015111;28;20394;-71
2023/09/22 11:28:39;;;;;;;0.75;0.47;;;23.70;54.80;;;;;;4997758;28;20026;-70
2023/09/22 11:31:14;;;;;;;0.98;0.50;;;23.80;54.90;;;;;;4998592;28;20037;-69
2023/09/22 11:33:40;;;;;;;0.85;0.50;;;23.70;54.80;;;;;;4999982;28;20041;-70
2023/09/22 11:36:07;;;;;;;0.43;0.43;;;23.80;54.90;;;;;;4999539;28;20040;-70
2023/09/22 11:38:34;;;;;;;0.50;0.50;;;23.80;54.90;;;;;;4999382;28;20026;-69
2023/09/22 11:41:04;;;;;;;0.65;0.47;;;23.70;54.80;;;;;;5001658;28;20032;-70
2023/09/22 11:43:31;;;;;;;0.50;0.50;;;23.80;54.90;;;;;;4999104;28;20090;-69
2023/09/22 11:46:16;;;;;;;0.75;0.60;;;23.70;54.80;;;;;;4998239;28;20100;-70
2023/09/22 11:49:04;;;;;;;0.50;0.40;;;23.70;54.80;;;;;;4996468;28;20338;-69
2023/09/22 11:51:50;;;;;;;1.65;0.50;;;23.70;54.80;;;;;;4997392;28;20069;-64
2023/09/22 11:54:21;;;;;;;0.85;0.60;;;23.80;54.90;;;;;;4998880;28;20105;-65
2023/09/22 11:56:49;;;;;;;0.77;0.50;;;23.70;54.80;;;;;;4996611;28;20539;-64
2023/09/22 11:59:19;;;;;;;1.00;0.70;;;23.70;54.80;;;;;;4996794;28;20025;-64
2023/09/22 12:01:46;;;;;;;0.60;0.50;;;23.70;54.80;;;;;;4995645;28;20061;-65
2023/09/22 12:04:13;;;;;;;2.15;0.60;;;23.70;54.90;;;;;;4999334;28;20049;-64
2023/09/22 12:06:40;;;;;;;0.73;0.60;;;23.70;54.80;;;;;;4998874;28;20117;-64
2023/09/22 12:09:10;;;;;;;0.40;0.40;;;23.70;54.90;;;;;;4997632;28;20073;-65
2023/09/22 12:11:36;;;;;;;0.50;0.45;;;23.70;54.80;;;;;;4998444;28;20030;-63
2023/09/22 12:14:03;;;;;;;0.60;0.50;;;23.70;54.90;;;;;;4997134;28;20540;-63
2023/09/22 12:16:29;;;;;;;0.63;0.40;;;23.70;54.90;;;;;;4995258;28;20428;-64
2023/09/22 12:18:56;;;;;;;0.77;0.60;;;23.70;54.90;;;;;;4998860;28;20030;-63
2023/09/22 12:21:22;;;;;;;0.65;0.50;;;23.70;55.40;;;;;;4998801;28;20030;-63
2023/09/22 12:23:47;;;;;;;0.88;0.60;;;23.70;54.90;;;;;;4999276;28;20081;-63
2023/09/22 12:26:13;;;;;;;0.50;0.50;;;23.70;54.90;;;;;;4996921;28;20030;-63
2023/09/22 12:28:40;;;;;;;0.95;0.50;;;23.70;54.90;;;;;;4998176;28;20069;-62
2023/09/22 12:31:06;;;;;;;0.40;0.40;;;23.70;54.90;;;;;;4995576;28;20046;-63
2023/09/22 12:33:32;;;;;;;0.63;0.50;;;23.70;54.90;;;;;;5000372;28;20044;-64
2023/09/22 12:35:58;;;;;;;0.55;0.40;;;23.70;54.90;;;;;;5000790;28;20030;-63
2023/09/22 12:38:24;;;;;;;1.00;0.60;;;23.70;54.90;;;;;;4999037;28;20581;-62
2023/09/22 12:40:51;;;;;;;0.68;0.50;;;23.70;54.90;;;;;;5001602;28;20366;-63
2023/09/22 12:43:17;;;;;;;0.40;0.40;;;23.70;54.90;;;;;;5000273;28;20098;-65
2023/09/22 12:45:43;;;;;;;0.60;0.50;;;23.70;54.90;;;;;;5001203;28;20054;-63
2023/09/22 12:48:10;;;;;;;0.45;0.40;;;23.70;54.90;;;;;;5002171;28;20066;-63
2023/09/22 12:50:36;;;;;;;0.60;0.47;;;23.70;54.90;;;;;;4998957;28;20030;-63
2023/09/22 12:53:02;;;;;;;1.42;0.50;;;23.70;54.80;;;;;;5001737;28;20022;-63
2023/09/22 12:55:29;;;;;;;0.73;0.50;;;23.70;54.80;;;;;;5002035;28;20541;-63